createdAt,value
2018-02-04T00:01:39.408Z,12.93
2018-02-04T00:04:06.840Z,10.43
2018-02-04T00:06:35.048Z,10.63
2018-02-04T00:09:02.484Z,9.37
2018-02-04T00:11:29.918Z,13.03
2018-02-04T00:13:57.359Z,22.30
2018-02-04T00:16:24.796Z,13.20
2018-02-04T00:18:52.237Z,12.87
2018-02-04T00:21:20.431Z,14.70
2018-02-04T00:23:48.636Z,11.33
2018-02-04T00:26:16.840Z,11.27
2018-02-04T00:28:45.075Z,15.97
2018-02-04T00:31:12.487Z,14.40
2018-02-04T00:33:39.936Z,18.07
2018-02-04T00:36:07.367Z,12.30
2018-02-04T00:38:35.580Z,17.83
2018-02-04T00:41:03.839Z,15.23
2018-02-04T00:43:31.288Z,15.93
2018-02-04T00:45:58.723Z,15.70
2018-02-04T00:48:26.936Z,11.70
2018-02-04T00:50:54.364Z,13.87
2018-02-04T00:53:21.807Z,13.63
2018-02-04T00:55:49.243Z,19.47
2018-02-04T00:58:16.688Z,16.40
2018-02-04T01:00:44.135Z,17.10
2018-02-04T01:03:11.599Z,18.37
2018-02-04T01:05:39.812Z,15.00
2018-02-04T01:08:08.020Z,14.97
2018-02-04T01:10:35.456Z,12.70
2018-02-04T01:13:02.899Z,15.70
2018-02-04T01:15:30.340Z,14.87
2018-02-04T01:17:58.547Z,13.60
2018-02-04T01:20:26.751Z,18.47
2018-02-04T01:22:54.192Z,11.87
2018-02-04T01:25:21.640Z,10.73
2018-02-04T01:27:49.116Z,12.73
2018-02-04T01:30:16.551Z,12.27
2018-02-04T01:32:43.991Z,14.80
2018-02-04T01:35:11.427Z,15.47
2018-02-04T01:37:39.640Z,14.87
2018-02-04T01:40:07.076Z,12.17
2018-02-04T01:42:34.528Z,15.77
2018-02-04T01:45:01.957Z,13.97
2018-02-04T01:47:30.165Z,15.00
2018-02-04T01:49:58.368Z,14.70
2018-02-04T01:52:25.803Z,14.03
2018-02-04T01:54:53.239Z,15.60
2018-02-04T01:57:20.691Z,15.03
2018-02-04T01:59:48.123Z,14.37
2018-02-04T02:02:15.571Z,16.50
2018-02-04T02:04:43.012Z,14.33
2018-02-04T02:07:10.464Z,13.23
2018-02-04T02:09:37.899Z,15.77
2018-02-04T02:12:06.107Z,13.30
2018-02-04T02:14:34.311Z,13.07
2018-02-04T02:17:01.760Z,16.90
2018-02-04T02:19:29.203Z,13.77
2018-02-04T02:21:56.639Z,16.07
2018-02-04T02:24:24.843Z,11.20
2018-02-04T02:26:53.048Z,14.90
2018-02-04T02:29:20.497Z,22.33
2018-02-04T02:31:47.937Z,12.97
2018-02-04T02:34:15.376Z,15.77
2018-02-04T02:36:43.581Z,17.33
2018-02-04T02:39:11.020Z,13.43
2018-02-04T02:41:38.504Z,15.70
2018-02-04T02:44:05.958Z,12.50
2018-02-04T02:46:33.391Z,15.67
2018-02-04T02:49:01.595Z,14.97
2018-02-04T02:51:29.799Z,17.20
2018-02-04T02:53:57.245Z,15.00
2018-02-04T02:56:24.681Z,15.00
2018-02-04T02:58:52.123Z,13.33
2018-02-04T03:01:20.318Z,18.13
2018-02-04T03:03:48.528Z,18.87
2018-02-04T03:06:16.727Z,20.23
2018-02-04T03:08:44.937Z,18.10
2018-02-04T03:11:12.377Z,19.53
2018-02-04T03:13:39.816Z,16.33
2018-02-04T03:16:07.247Z,14.97
2018-02-04T03:18:34.695Z,15.93
2018-02-04T03:21:02.131Z,16.33
2018-02-04T03:23:30.344Z,24.50
2018-02-04T03:25:57.774Z,18.70
2018-02-04T03:28:25.215Z,15.00
2018-02-04T03:30:52.660Z,17.40
2018-02-04T03:33:20.907Z,19.40
2018-02-04T03:35:48.338Z,20.23
2018-02-04T03:38:17.274Z,19.07
2018-02-04T03:40:44.703Z,20.97
2018-02-04T03:43:12.163Z,16.10
2018-02-04T03:45:39.600Z,19.10
2018-02-04T03:48:07.802Z,25.60
2018-02-04T03:50:35.235Z,20.67
2018-02-04T03:53:02.679Z,19.00
2018-02-04T03:55:30.114Z,16.40
2018-02-04T03:57:57.550Z,23.10
2018-02-04T04:00:24.987Z,16.00
2018-02-04T04:02:52.424Z,15.50
2018-02-04T04:05:19.868Z,17.33
2018-02-04T04:07:48.078Z,16.03
2018-02-04T04:10:15.551Z,16.67
2018-02-04T04:12:42.986Z,23.40
2018-02-04T04:15:10.427Z,17.27
2018-02-04T04:17:37.883Z,18.37
2018-02-04T04:20:06.086Z,19.93
2018-02-04T04:22:33.515Z,17.90
2018-02-04T04:25:00.959Z,19.00
2018-02-04T04:27:28.394Z,25.33
2018-02-04T04:29:55.834Z,20.00
2018-02-04T04:32:23.266Z,19.33
2018-02-04T04:34:50.716Z,21.53
2018-02-04T04:37:18.143Z,19.50
2018-02-04T04:39:46.347Z,19.80
2018-02-04T04:42:13.779Z,16.90
2018-02-04T04:44:41.218Z,18.67
2018-02-04T04:47:08.650Z,23.77
2018-02-04T04:49:36.099Z,19.70
2018-02-04T04:52:03.527Z,22.10
2018-02-04T04:54:31.740Z,20.73
2018-02-04T04:56:59.938Z,18.47
2018-02-04T04:59:27.374Z,18.77
2018-02-04T05:01:54.806Z,28.80
2018-02-04T05:04:22.255Z,18.50
2018-02-04T05:06:49.683Z,19.60
2018-02-04T05:09:17.131Z,20.57
2018-02-04T05:11:45.332Z,19.07
2018-02-04T05:14:13.599Z,22.63
2018-02-04T05:16:41.032Z,18.53
2018-02-04T05:19:08.470Z,21.17
2018-02-04T05:21:35.900Z,19.83
2018-02-04T05:24:03.344Z,18.27
2018-02-04T05:26:31.543Z,22.10
2018-02-04T05:28:59.750Z,19.60
2018-02-04T05:31:27.994Z,25.30
2018-02-04T05:33:55.439Z,19.97
2018-02-04T05:36:23.635Z,20.13
2018-02-04T05:38:51.070Z,22.03
2018-02-04T05:41:18.511Z,24.70
2018-02-04T05:43:45.955Z,20.40
2018-02-04T05:46:13.397Z,19.17
2018-02-04T05:48:40.831Z,20.77
2018-02-04T05:51:09.036Z,24.83
2018-02-04T05:53:36.470Z,21.83
2018-02-04T05:56:03.911Z,24.80
2018-02-04T05:58:31.347Z,20.20
2018-02-04T06:00:58.791Z,21.30
2018-02-04T06:03:26.227Z,25.23
2018-02-04T06:05:54.443Z,22.80
2018-02-04T06:08:21.883Z,21.60
2018-02-04T06:10:49.336Z,26.20
2018-02-04T06:13:16.771Z,22.23
2018-02-04T06:15:44.986Z,24.00
2018-02-04T06:18:12.425Z,23.57
2018-02-04T06:20:39.871Z,19.53
2018-02-04T06:23:07.319Z,23.50
2018-02-04T06:25:34.759Z,23.03
2018-02-04T06:28:02.211Z,18.57
2018-02-04T06:30:29.655Z,19.30
2018-02-04T06:32:57.855Z,20.63
2018-02-04T06:35:26.067Z,28.47
2018-02-04T06:37:53.508Z,20.67
2018-02-04T06:40:20.961Z,20.77
2018-02-04T06:42:48.419Z,21.60
2018-02-04T06:45:16.611Z,21.80
2018-02-04T06:47:44.051Z,24.43
2018-02-04T06:50:11.493Z,24.00
2018-02-04T06:52:38.935Z,25.57
2018-02-04T06:55:07.151Z,25.97
2018-02-04T06:57:34.586Z,28.40
2018-02-04T07:00:02.060Z,31.20
2018-02-04T07:02:29.486Z,27.40
2018-02-04T07:04:56.927Z,27.07
2018-02-04T07:07:24.368Z,24.03
2018-02-04T07:09:51.816Z,28.83
2018-02-04T07:12:20.014Z,52.33
2018-02-04T07:14:48.227Z,28.57
2018-02-04T07:17:15.655Z,33.30
2018-02-04T07:19:43.091Z,29.47
2018-02-04T07:22:10.523Z,27.27
2018-02-04T07:24:39.480Z,25.10
2018-02-04T07:27:06.903Z,25.47
2018-02-04T07:29:34.342Z,23.87
2018-02-04T07:32:01.774Z,25.20
2018-02-04T07:34:29.265Z,25.47
2018-02-04T07:36:56.660Z,35.13
2018-02-04T07:39:24.867Z,22.33
2018-02-04T07:41:53.066Z,18.23
2018-02-04T07:44:21.271Z,19.57
2018-02-04T07:46:48.702Z,25.33
2018-02-04T07:49:16.159Z,23.47
2018-02-04T07:51:43.591Z,28.67
2018-02-04T07:54:11.791Z,28.00
2018-02-04T07:56:39.994Z,23.43
2018-02-04T07:59:08.200Z,23.93
2018-02-04T08:01:36.426Z,21.43
2018-02-04T08:04:03.858Z,20.80
2018-02-04T08:06:31.300Z,21.20
2018-02-04T08:08:58.735Z,17.30
2018-02-04T08:11:26.938Z,19.30
2018-02-04T08:13:54.374Z,19.40
2018-02-04T08:16:21.813Z,18.00
2018-02-04T08:18:49.247Z,16.70
2018-02-04T08:21:16.691Z,19.30
2018-02-04T08:23:44.123Z,19.83
2018-02-04T08:26:11.563Z,17.20
2018-02-04T08:28:39.003Z,21.63
2018-02-04T08:31:07.214Z,16.40
2018-02-04T08:33:34.655Z,17.60
2018-02-04T08:36:02.094Z,17.53
2018-02-04T08:38:29.527Z,19.10
2018-02-04T08:40:57.734Z,20.30
2018-02-04T08:43:25.994Z,15.77
2018-02-04T08:45:53.427Z,20.27
2018-02-04T08:48:20.867Z,15.60
2018-02-04T08:50:48.313Z,18.37
2018-02-04T08:53:15.752Z,18.53
2018-02-04T08:55:43.947Z,20.70
2018-02-04T08:58:12.143Z,16.27
2018-02-04T09:00:40.351Z,18.13
2018-02-04T09:03:07.795Z,17.13
2018-02-04T09:05:35.227Z,16.57
2018-02-04T09:10:35.499Z,16.37
2018-02-04T09:13:03.707Z,18.57
2018-02-04T09:15:31.195Z,15.57
2018-02-04T09:17:58.639Z,15.40
2018-02-04T09:20:26.079Z,19.10
2018-02-04T09:22:53.525Z,15.50
2018-02-04T09:25:20.955Z,17.40
2018-02-04T09:27:48.394Z,19.17
2018-02-04T09:30:15.830Z,15.47
2018-02-04T09:32:43.275Z,20.07
2018-02-04T09:35:10.720Z,12.63
2018-02-04T09:37:38.922Z,14.63
2018-02-04T09:40:06.356Z,17.83
2018-02-04T09:42:33.799Z,15.07
2018-02-04T09:45:01.235Z,15.67
2018-02-04T09:47:28.667Z,15.43
2018-02-04T09:49:56.107Z,18.83
2018-02-04T09:52:24.306Z,17.13
2018-02-04T09:54:52.523Z,19.20
2018-02-04T09:57:19.951Z,20.77
2018-02-04T09:59:47.395Z,16.93
2018-02-04T10:02:14.823Z,15.77
2018-02-04T10:04:42.263Z,14.90
2018-02-04T10:07:09.695Z,14.13
2018-02-04T10:09:37.139Z,17.80
2018-02-04T10:12:04.571Z,15.87
2018-02-04T10:14:32.775Z,18.40
2018-02-04T10:17:00.979Z,18.37
2018-02-04T10:19:29.200Z,17.93
2018-02-04T10:21:56.620Z,20.07
2018-02-04T10:24:24.836Z,14.47
2018-02-04T10:26:52.263Z,14.80
2018-02-04T10:29:19.707Z,24.43
2018-02-04T10:31:47.907Z,16.67
2018-02-04T10:34:16.117Z,19.50
2018-02-04T10:36:44.326Z,16.67
2018-02-04T10:39:11.766Z,16.30
2018-02-04T10:41:39.205Z,17.90
2018-02-04T10:44:06.636Z,16.77
2018-02-04T10:46:34.838Z,14.40
2018-02-04T10:49:03.043Z,16.57
2018-02-04T10:54:39.874Z,14.10
2018-02-04T10:57:07.682Z,16.30
2018-02-04T10:59:35.884Z,13.20
2018-02-04T11:02:04.095Z,16.47
2018-02-04T11:04:31.526Z,11.47
2018-02-04T11:06:58.975Z,14.20
2018-02-04T11:09:26.408Z,13.00
2018-02-04T11:11:53.846Z,13.43
2018-02-04T11:14:21.284Z,15.13
2018-02-04T11:16:49.500Z,12.10
2018-02-04T11:19:17.699Z,14.43
2018-02-04T11:21:45.907Z,11.40
2018-02-04T11:24:13.339Z,12.87
2018-02-04T11:26:40.774Z,13.37
2018-02-04T11:29:08.203Z,12.67
2018-02-04T11:31:35.647Z,9.50
2018-02-04T11:34:03.074Z,9.60
2018-02-04T11:36:31.283Z,7.47
2018-02-04T11:38:59.479Z,9.70
2018-02-04T11:41:27.674Z,7.23
2018-02-04T11:43:55.875Z,12.00
2018-02-04T11:46:24.106Z,8.50
2018-02-04T11:48:51.539Z,10.40
2018-02-04T11:51:18.990Z,5.83
2018-02-04T11:53:46.419Z,6.90
2018-02-04T11:56:14.631Z,7.30
2018-02-04T11:58:42.055Z,7.20
2018-02-04T12:01:09.492Z,7.10
2018-02-04T12:03:36.923Z,12.53
2018-02-04T12:06:04.379Z,6.90
2018-02-04T12:08:31.802Z,7.10
2018-02-04T12:10:59.243Z,8.10
2018-02-04T12:13:26.662Z,8.53
2018-02-04T12:15:54.114Z,8.60
2018-02-04T12:18:21.538Z,9.60
2018-02-04T12:20:49.739Z,15.90
2018-02-04T12:23:17.943Z,7.83
2018-02-04T12:25:46.135Z,7.87
2018-02-04T12:28:14.335Z,9.63
2018-02-04T12:30:42.532Z,8.10
2018-02-04T12:33:10.742Z,8.20
2018-02-04T12:35:38.926Z,8.87
2018-02-04T12:38:07.132Z,8.90
2018-02-04T12:40:35.318Z,14.33
2018-02-04T12:43:03.519Z,11.43
2018-02-04T12:45:31.713Z,8.40
2018-02-04T12:47:59.915Z,10.80
2018-02-04T12:50:28.119Z,10.20
2018-02-04T12:52:56.331Z,11.73
2018-02-04T12:55:24.519Z,10.10
2018-02-04T12:57:52.715Z,9.53
2018-02-04T13:00:20.916Z,11.90
2018-02-04T13:02:48.364Z,12.23
2018-02-04T13:05:15.791Z,10.33
2018-02-04T13:07:43.226Z,10.63
2018-02-04T13:10:11.224Z,9.03
2018-02-04T13:12:38.652Z,13.13
2018-02-04T13:15:06.081Z,12.83
2018-02-04T13:17:33.514Z,12.50
2018-02-04T13:20:01.002Z,12.33
2018-02-04T13:22:28.438Z,9.00
2018-02-04T13:24:55.871Z,10.87
2018-02-04T13:27:23.303Z,8.13
2018-02-04T13:29:51.499Z,8.70
2018-02-04T13:32:18.935Z,7.87
2018-02-04T13:34:46.363Z,7.97
2018-02-04T13:37:14.566Z,6.27
2018-02-04T13:39:42.763Z,5.00
2018-02-04T13:42:10.959Z,7.20
2018-02-04T13:44:39.146Z,8.70
2018-02-04T13:47:06.652Z,8.83
2018-02-04T13:49:34.832Z,13.03
2018-02-04T13:52:03.048Z,12.10
2018-02-04T13:54:31.239Z,8.43
2018-02-04T13:56:59.448Z,10.60
2018-02-04T13:59:26.878Z,10.33
2018-02-04T14:01:54.302Z,7.23
2018-02-04T14:04:22.508Z,10.67
2018-02-04T14:06:49.939Z,9.23
2018-02-04T14:09:17.371Z,10.87
2018-02-04T14:11:44.803Z,14.27
2018-02-04T14:14:12.244Z,10.80
2018-02-04T14:16:39.679Z,14.60
2018-02-04T14:19:07.883Z,12.50
2018-02-04T14:21:36.083Z,13.40
2018-02-04T14:24:04.292Z,11.93
2018-02-04T14:26:32.487Z,11.57
2018-02-04T14:29:00.696Z,10.80
2018-02-04T14:31:28.123Z,14.13
2018-02-04T14:33:55.563Z,11.50
2018-02-04T14:36:22.994Z,12.10
2018-02-04T14:38:50.438Z,14.87
2018-02-04T14:41:17.867Z,13.07
2018-02-04T14:43:45.299Z,14.77
2018-02-04T14:46:12.727Z,8.63
2018-02-04T14:48:40.157Z,9.33
2018-02-04T14:51:07.583Z,9.07
2018-02-04T14:53:35.019Z,7.90
2018-02-04T14:56:02.455Z,9.77
2018-02-04T14:58:30.658Z,11.93
2018-02-04T15:00:58.855Z,7.80
2018-02-04T15:03:27.054Z,8.90
2018-02-04T15:05:55.247Z,8.50
2018-02-04T15:08:23.446Z,9.13
2018-02-04T15:10:51.639Z,9.00
2018-02-04T15:13:19.071Z,12.70
2018-02-04T15:15:46.503Z,9.20
2018-02-04T15:18:14.703Z,8.17
2018-02-04T15:20:42.894Z,6.43
2018-02-04T15:23:10.327Z,8.33
2018-02-04T15:25:37.791Z,7.47
2018-02-04T15:28:05.187Z,7.10
2018-02-04T15:30:32.622Z,7.23
2018-02-04T15:33:00.061Z,10.50
2018-02-04T15:35:27.499Z,10.80
2018-02-04T15:37:55.696Z,7.30
2018-02-04T15:40:23.135Z,5.10
2018-02-04T15:42:50.567Z,7.03
2018-02-04T15:45:18.767Z,6.80
2018-02-04T15:47:46.194Z,8.40
2018-02-04T15:50:13.631Z,10.63
2018-02-04T15:52:41.071Z,62.03
2018-02-04T15:55:08.551Z,23.37
2018-02-04T15:57:35.980Z,12.20
2018-02-04T16:00:04.175Z,7.67
2018-02-04T16:02:31.622Z,12.70
2018-02-04T16:04:59.056Z,9.23
2018-02-04T16:07:27.256Z,9.97
2018-02-04T16:09:55.456Z,16.10
2018-02-04T16:12:23.659Z,17.37
2018-02-04T16:14:51.088Z,10.73
2018-02-04T16:17:18.564Z,6.73
2018-02-04T16:19:45.983Z,7.77
2018-02-04T16:22:13.418Z,10.23
2018-02-04T16:24:40.846Z,9.97
2018-02-04T16:27:08.279Z,9.20
2018-02-04T16:29:35.710Z,14.40
2018-02-04T16:32:03.147Z,9.20
2018-02-04T16:34:30.575Z,9.13
2018-02-04T16:36:58.007Z,7.40
2018-02-04T16:39:25.452Z,8.77
2018-02-04T16:41:53.655Z,14.13
2018-02-04T16:44:21.850Z,7.70
2018-02-04T16:46:50.050Z,11.00
2018-02-04T16:49:18.285Z,14.63
2018-02-04T16:51:45.711Z,9.43
2018-02-04T16:54:13.142Z,9.20
2018-02-04T16:56:40.571Z,9.60
2018-02-04T16:59:08.019Z,10.00
2018-02-04T17:01:52.710Z,7.33
2018-02-04T17:04:20.139Z,11.63
2018-02-04T17:06:47.626Z,19.00
2018-02-04T17:09:15.038Z,29.63
2018-02-04T17:11:42.479Z,54.83
2018-02-04T17:14:09.926Z,50.63
2018-02-04T17:16:37.362Z,33.80
2018-02-04T17:19:04.801Z,34.27
2018-02-04T17:21:32.247Z,38.77
2018-02-04T17:23:59.674Z,26.30
2018-02-04T17:26:27.890Z,21.83
2018-02-04T17:28:55.331Z,29.73
2018-02-04T17:31:22.771Z,24.83
2018-02-04T17:33:50.209Z,22.63
2018-02-04T17:36:17.653Z,63.43
2018-02-04T17:38:45.898Z,21.93
2018-02-04T17:41:13.327Z,26.10
2018-02-04T17:43:40.769Z,35.17
2018-02-04T17:46:08.203Z,50.70
2018-02-04T17:48:35.658Z,51.40
2018-02-04T17:51:03.140Z,57.67
2018-02-04T17:53:30.575Z,51.37
2018-02-04T17:55:58.023Z,58.97
2018-02-04T17:58:26.273Z,38.90
2018-02-04T18:00:53.698Z,24.43
2018-02-04T18:03:21.142Z,21.17
2018-02-04T18:05:49.347Z,19.90
2018-02-04T18:08:16.825Z,25.13
2018-02-04T18:10:44.231Z,27.67
2018-02-04T18:13:11.684Z,29.07
2018-02-04T18:15:39.127Z,24.10
2018-02-04T18:18:06.566Z,21.10
2018-02-04T18:20:34.770Z,18.37
2018-02-04T18:23:02.974Z,15.10
2018-02-04T18:25:30.411Z,15.27
2018-02-04T18:27:57.859Z,21.50
2018-02-04T18:30:25.295Z,17.83
2018-02-04T18:32:52.752Z,17.03
2018-02-04T18:35:20.196Z,17.77
2018-02-04T18:37:48.416Z,16.63
2018-02-04T18:40:15.853Z,14.60
2018-02-04T18:42:44.063Z,14.73
2018-02-04T18:45:11.501Z,21.23
2018-02-04T18:47:38.943Z,28.07
2018-02-04T18:50:06.383Z,18.30
2018-02-04T18:52:33.835Z,16.57
2018-02-04T18:55:01.287Z,14.83
2018-02-04T18:57:29.486Z,14.90
2018-02-04T18:59:56.968Z,15.87
2018-02-04T19:02:24.406Z,19.50
2018-02-04T19:04:52.614Z,17.50
2018-02-04T19:07:20.059Z,20.20
2018-02-04T19:09:48.327Z,25.33
2018-02-04T19:12:15.797Z,21.73
2018-02-04T19:14:43.264Z,14.40
2018-02-04T19:17:10.705Z,21.50
2018-02-04T19:19:38.139Z,19.17
2018-02-04T19:22:06.356Z,15.07
2018-02-04T19:24:33.790Z,17.80
2018-02-04T19:27:02.068Z,24.07
2018-02-04T19:29:29.505Z,29.50
2018-02-04T19:31:56.947Z,41.67
2018-02-04T19:34:24.404Z,63.80
2018-02-04T19:36:51.846Z,34.37
2018-02-04T19:39:20.100Z,33.20
2018-02-04T19:41:47.531Z,31.90
2018-02-04T19:44:15.030Z,34.43
2018-02-04T19:46:42.502Z,39.63
2018-02-04T19:49:09.987Z,26.70
2018-02-04T19:51:37.427Z,57.97
2018-02-04T19:54:04.924Z,43.53
2018-02-04T19:56:32.342Z,44.57
2018-02-04T19:58:59.838Z,41.80
2018-02-04T20:01:27.267Z,52.70
2018-02-04T20:03:55.483Z,96.33
2018-02-04T20:06:22.910Z,90.60
2018-02-04T20:08:51.161Z,90.73
2018-02-04T20:11:18.595Z,66.07
2018-02-04T20:13:46.091Z,103.10
2018-02-04T20:16:13.573Z,70.03
2018-02-04T20:18:41.050Z,33.07
2018-02-04T20:21:08.491Z,26.83
2018-02-04T20:23:35.926Z,26.63
2018-02-04T20:26:03.384Z,49.97
2018-02-04T20:28:31.591Z,40.07
2018-02-04T20:30:59.039Z,53.10
2018-02-04T20:36:24.024Z,36.63
2018-02-04T20:38:51.480Z,50.83
2018-02-04T20:41:18.919Z,65.53
2018-02-04T20:43:47.138Z,47.03
2018-02-04T20:46:14.638Z,58.60
2018-02-04T20:48:42.114Z,49.67
2018-02-04T20:51:09.578Z,51.10
2018-02-04T20:53:36.983Z,26.13
2018-02-04T20:56:05.195Z,22.37
2018-02-04T20:58:32.639Z,29.57
2018-02-04T21:01:00.899Z,43.20
2018-02-04T21:03:28.378Z,50.30
2018-02-04T21:05:55.851Z,35.53
2018-02-04T21:08:23.322Z,58.17
2018-02-04T21:10:50.802Z,52.87
2018-02-04T21:13:18.272Z,63.07
2018-02-04T21:15:45.746Z,84.90
2018-02-04T21:18:13.171Z,65.30
2018-02-04T21:20:40.615Z,62.10
2018-02-04T21:23:08.063Z,67.97
2018-02-04T21:25:35.541Z,46.03
2018-02-04T21:28:03.780Z,36.03
2018-02-04T21:30:31.198Z,55.20
2018-02-04T21:32:58.690Z,62.00
2018-02-04T21:35:26.166Z,56.00
2018-02-04T21:37:53.600Z,53.93
2018-02-04T23:02:18.906Z,41.80
2018-02-04T23:04:46.347Z,44.37
2018-02-04T23:07:13.783Z,45.60
2018-02-04T23:09:41.231Z,40.47
2018-02-04T23:12:09.447Z,39.53
2018-02-04T23:14:36.894Z,30.70
2018-02-04T23:17:04.335Z,36.93
2018-02-04T23:19:31.780Z,34.17
2018-02-04T23:21:59.214Z,34.20
2018-02-04T23:24:27.422Z,37.67
2018-02-04T23:26:54.866Z,24.40
2018-02-04T23:29:22.302Z,31.13
2018-02-04T23:31:50.523Z,28.60
2018-02-04T23:34:18.727Z,30.97
2018-02-04T23:36:46.175Z,29.97
2018-02-04T23:39:13.611Z,24.53
2018-02-04T23:41:41.059Z,30.50
2018-02-04T23:44:09.256Z,22.90
2018-02-04T23:46:37.462Z,29.93
2018-02-04T23:49:04.905Z,22.90
2018-02-04T23:51:32.364Z,28.40
2018-02-04T23:53:59.794Z,25.70
2018-02-04T23:56:28.003Z,25.27
2018-02-04T23:58:55.434Z,23.63
